createdAt,value
2018-09-30T00:00:18.742Z,99642.70
2018-09-30T00:03:21.958Z,99642.16
2018-09-30T00:06:25.114Z,99646.49
2018-09-30T00:09:28.314Z,99637.37
2018-09-30T00:12:31.576Z,99636.67
2018-09-30T00:15:35.114Z,99631.14
2018-09-30T00:18:38.386Z,99633.17
2018-09-30T00:21:41.785Z,99628.23
2018-09-30T00:24:50.595Z,99630.79
2018-09-30T00:27:53.838Z,99628.44
2018-09-30T00:30:57.113Z,99628.08
2018-09-30T00:34:06.277Z,99625.86
2018-09-30T00:37:09.517Z,99632.79
2018-09-30T00:40:12.731Z,99620.55
2018-09-30T00:43:16.070Z,99618.64
2018-09-30T00:46:19.325Z,99611.28
2018-09-30T00:49:22.667Z,99613.27
2018-09-30T00:52:25.905Z,99606.55
2018-09-30T00:55:29.154Z,99611.26
2018-09-30T00:58:32.464Z,99598.57
2018-09-30T01:01:35.731Z,99608.23
2018-09-30T01:04:38.938Z,99600.10
2018-09-30T01:07:42.029Z,99592.31
2018-09-30T01:10:45.335Z,99592.06
2018-09-30T01:13:48.696Z,99586.42
2018-09-30T01:16:51.914Z,99583.80
2018-09-30T01:19:55.256Z,99571.81
2018-09-30T01:22:58.461Z,99569.55
2018-09-30T01:26:01.836Z,99572.70
2018-09-30T01:29:05.118Z,99562.84
2018-09-30T01:32:08.334Z,99564.85
2018-09-30T01:35:11.494Z,99562.84
2018-09-30T01:38:14.873Z,99553.55
2018-09-30T01:41:17.965Z,99550.84
2018-09-30T01:44:21.119Z,99545.89
2018-09-30T01:47:24.466Z,99544.48
2018-09-30T01:50:27.639Z,99541.67
2018-09-30T01:53:30.831Z,99544.36
2018-09-30T01:56:34.011Z,99542.02
2018-09-30T01:59:37.218Z,99540.36
2018-09-30T02:02:40.412Z,99536.34
2018-09-30T02:05:43.608Z,99536.83
2018-09-30T02:08:46.860Z,99539.28
2018-09-30T02:11:50.130Z,99530.70
2018-09-30T02:14:53.386Z,99528.22
2018-09-30T02:17:56.742Z,99533.91
2018-09-30T02:20:59.984Z,99532.23
2018-09-30T02:24:03.174Z,99529.87
2018-09-30T02:27:06.385Z,99524.46
2018-09-30T02:30:09.603Z,99521.87
2018-09-30T02:33:12.897Z,99515.64
2018-09-30T02:36:17.094Z,99510.20
2018-09-30T02:39:20.441Z,99507.17
2018-09-30T02:42:23.671Z,99508.53
2018-09-30T02:45:26.958Z,99503.95
2018-09-30T02:48:30.179Z,99501.98
2018-09-30T02:51:33.346Z,99503.03
2018-09-30T02:54:36.583Z,99499.98
2018-09-30T02:57:39.842Z,99496.33
2018-09-30T03:00:43.033Z,99495.27
2018-09-30T03:03:46.237Z,99498.69
2018-09-30T03:06:54.964Z,99488.33
2018-09-30T03:09:58.168Z,99490.33
2018-09-30T03:13:03.204Z,99480.09
2018-09-30T03:16:06.338Z,99484.68
2018-09-30T03:19:09.627Z,99485.39
2018-09-30T03:22:12.842Z,99480.44
2018-09-30T03:25:16.107Z,99480.53
2018-09-30T03:28:19.986Z,99478.05
2018-09-30T03:31:24.174Z,99473.02
2018-09-30T03:34:27.369Z,99471.09
2018-09-30T03:37:30.578Z,99471.59
2018-09-30T03:40:34.775Z,99469.70
2018-09-30T03:43:37.956Z,99468.91
2018-09-30T03:46:41.866Z,99464.89
2018-09-30T03:49:45.094Z,99465.02
2018-09-30T03:52:48.306Z,99465.30
2018-09-30T03:55:51.601Z,99458.75
2018-09-30T03:58:54.883Z,99449.72
2018-09-30T04:01:58.185Z,99446.52
2018-09-30T04:05:01.460Z,99441.02
2018-09-30T04:08:04.688Z,99437.73
2018-09-30T04:11:08.092Z,99433.82
2018-09-30T04:14:11.346Z,99427.61
2018-09-30T04:17:14.683Z,99433.71
2018-09-30T04:20:17.894Z,99434.55
2018-09-30T04:23:21.164Z,99431.25
2018-09-30T04:26:24.397Z,99440.05
2018-09-30T04:29:28.618Z,99437.70
2018-09-30T04:32:31.876Z,99439.02
2018-09-30T04:35:35.139Z,99428.27
2018-09-30T04:38:38.263Z,99433.57
2018-09-30T04:41:41.498Z,99440.48
2018-09-30T04:44:45.506Z,99434.83
2018-09-30T04:47:48.778Z,99436.84
2018-09-30T04:50:52.074Z,99438.63
2018-09-30T04:53:55.253Z,99436.36
2018-09-30T04:56:58.496Z,99437.59
2018-09-30T05:00:01.662Z,99435.96
2018-09-30T05:03:05.121Z,99442.38
2018-09-30T05:06:08.293Z,99436.31
2018-09-30T05:09:11.466Z,99437.23
2018-09-30T05:12:14.643Z,99432.27
2018-09-30T05:15:17.915Z,99433.28
2018-09-30T05:18:21.142Z,99428.66
2018-09-30T05:21:24.442Z,99434.41
2018-09-30T05:24:28.609Z,99433.92
2018-09-30T05:27:31.814Z,99443.60
2018-09-30T05:30:34.954Z,99439.68
2018-09-30T05:33:38.153Z,99434.95
2018-09-30T05:36:41.371Z,99435.58
2018-09-30T05:39:44.563Z,99423.00
2018-09-30T05:42:47.783Z,99425.91
2018-09-30T05:45:51.183Z,99428.39
2018-09-30T05:48:54.455Z,99432.62
2018-09-30T05:51:57.670Z,99427.33
2018-09-30T05:55:00.818Z,99422.19
2018-09-30T05:58:04.173Z,99419.95
2018-09-30T06:01:07.310Z,99430.77
2018-09-30T06:04:10.763Z,99437.03
2018-09-30T06:07:14.028Z,99423.14
2018-09-30T06:10:17.195Z,99421.33
2018-09-30T06:13:20.410Z,99423.41
2018-09-30T06:16:23.673Z,99422.14
2018-09-30T06:19:27.005Z,99425.91
2018-09-30T06:22:31.319Z,99410.14
2018-09-30T06:25:34.471Z,99416.00
2018-09-30T06:28:37.744Z,99406.00
2018-09-30T06:31:41.553Z,99399.08
2018-09-30T06:34:44.696Z,99392.66
2018-09-30T06:37:47.952Z,99394.25
2018-09-30T06:40:51.154Z,99385.88
2018-09-30T06:43:54.411Z,99383.31
2018-09-30T06:46:57.727Z,99389.28
2018-09-30T06:50:00.946Z,99386.55
2018-09-30T06:53:04.181Z,99389.92
2018-09-30T06:56:07.376Z,99384.34
2018-09-30T06:59:10.771Z,99388.31
2018-09-30T07:02:14.419Z,99372.05
2018-09-30T07:05:18.231Z,99377.72
2018-09-30T07:08:21.628Z,99373.30
2018-09-30T07:11:34.760Z,99367.84
2018-09-30T07:14:40.698Z,99373.50
2018-09-30T07:17:46.589Z,99372.23
2018-09-30T07:20:52.631Z,99366.48
2018-09-30T07:28:01.119Z,99370.55
2018-09-30T07:31:46.371Z,99364.27
2018-09-30T07:35:02.145Z,99365.78
2018-09-30T08:25:28.906Z,99336.95
2018-09-30T08:28:47.521Z,99335.20
2018-09-30T08:44:21.601Z,99322.34
2018-09-30T08:48:15.816Z,99318.63
2018-09-30T08:55:46.638Z,99318.22
2018-09-30T08:59:00.311Z,99316.51
2018-09-30T09:02:26.173Z,99305.59
2018-09-30T09:05:33.906Z,99302.32
2018-09-30T09:08:55.235Z,99309.31
2018-09-30T09:12:05.535Z,99302.21
2018-09-30T09:19:00.454Z,99291.70
2018-09-30T09:22:09.912Z,99291.53
2018-09-30T09:25:22.771Z,99284.28
2018-09-30T09:28:33.101Z,99279.38
2018-09-30T09:35:32.052Z,99284.67
2018-09-30T09:48:52.718Z,99280.71
2018-09-30T09:58:58.332Z,99262.34
2018-09-30T10:02:39.444Z,99273.48
2018-09-30T10:05:50.023Z,99254.06
2018-09-30T10:09:06.181Z,99245.70
2018-09-30T10:17:28.385Z,99239.61
2018-09-30T10:24:03.294Z,99236.23
2018-09-30T10:31:23.697Z,99213.67
2018-09-30T10:35:40.152Z,99200.63
2018-09-30T10:38:59.257Z,99195.83
2018-09-30T10:42:07.304Z,99186.92
2018-09-30T10:45:10.440Z,99191.88
2018-09-30T10:48:13.639Z,99181.70
2018-09-30T10:51:29.434Z,99173.16
2018-09-30T10:55:27.264Z,99167.48
2018-09-30T10:58:37.111Z,99169.70
2018-09-30T11:01:53.020Z,99161.39
2018-09-30T11:04:56.782Z,99156.16
2018-09-30T11:08:00.854Z,99144.52
2018-09-30T11:11:04.987Z,99137.09
2018-09-30T11:14:09.596Z,99145.27
2018-09-30T11:17:12.994Z,99135.28
2018-09-30T11:20:16.466Z,99132.77
2018-09-30T11:23:19.777Z,99122.73
2018-09-30T11:26:24.045Z,99122.22
2018-09-30T11:29:28.253Z,99116.05
2018-09-30T11:32:31.498Z,99108.06
2018-09-30T11:35:35.070Z,99094.33
2018-09-30T11:38:38.387Z,99089.92
2018-09-30T11:41:42.667Z,99094.23
2018-09-30T11:44:45.824Z,99095.30
2018-09-30T11:47:49.029Z,99066.45
2018-09-30T11:50:52.247Z,99075.00
2018-09-30T11:53:55.506Z,99073.96
2018-09-30T11:56:58.869Z,99062.69
2018-09-30T12:00:02.076Z,99045.56
2018-09-30T12:03:05.549Z,99047.81
2018-09-30T12:06:08.723Z,99046.78
2018-09-30T12:09:12.025Z,99053.36
2018-09-30T12:12:15.344Z,99039.22
2018-09-30T12:15:18.469Z,99035.47
2018-09-30T12:18:21.697Z,99032.70
2018-09-30T12:21:24.895Z,99020.77
2018-09-30T12:24:28.061Z,99023.50
2018-09-30T12:27:31.201Z,99012.31
2018-09-30T12:30:38.204Z,98989.90
2018-09-30T12:37:26.365Z,98991.72
2018-09-30T12:40:35.659Z,98996.92
2018-09-30T13:29:40.539Z,98944.05
2018-09-30T13:33:08.967Z,98935.38
2018-09-30T13:36:18.608Z,98941.19
2018-09-30T13:39:27.443Z,98941.22
2018-09-30T13:42:36.479Z,98913.95
2018-09-30T13:59:33.272Z,98889.70
2018-09-30T14:02:56.889Z,98882.22
2018-09-30T14:06:12.134Z,98894.55
2018-09-30T14:09:21.381Z,98916.39
2018-09-30T14:12:26.293Z,98923.28
2018-09-30T14:16:01.735Z,98902.38
2018-09-30T14:19:27.136Z,98862.05
2018-09-30T14:22:48.467Z,98838.34
2018-09-30T14:26:05.562Z,98878.94
2018-09-30T14:57:59.502Z,98847.74
2018-09-30T15:01:55.396Z,98868.33
2018-09-30T15:05:14.418Z,98772.14
2018-09-30T15:08:37.570Z,98815.98
2018-09-30T15:12:13.637Z,98835.14
2018-09-30T15:15:21.063Z,98812.70
2018-09-30T15:19:09.214Z,98812.13
2018-09-30T15:22:26.095Z,98843.07
2018-09-30T15:25:47.548Z,98826.91
2018-09-30T15:28:57.208Z,98855.64
2018-09-30T15:32:33.577Z,98882.64
2018-09-30T15:35:48.849Z,98850.78
2018-09-30T15:38:58.056Z,98847.28
2018-09-30T15:42:15.730Z,98848.25
2018-09-30T15:49:50.512Z,98846.67
2018-09-30T15:57:38.635Z,98818.07
2018-09-30T16:00:51.026Z,98823.30
2018-09-30T16:04:01.492Z,98836.92
2018-09-30T16:07:08.690Z,98821.45
2018-09-30T16:10:13.209Z,98833.83
2018-09-30T18:22:01.374Z,98881.57
2018-09-30T18:38:56.879Z,98887.49
2018-09-30T19:00:26.636Z,98898.36
2018-09-30T19:05:41.246Z,98901.17
2018-09-30T19:14:22.343Z,98889.08
2018-09-30T19:17:32.920Z,98882.78
2018-09-30T19:20:44.038Z,98886.31
2018-09-30T19:23:51.664Z,98885.58
2018-09-30T19:26:56.956Z,98892.66
2018-09-30T19:33:19.537Z,98882.73
2018-09-30T19:36:28.586Z,98889.52
2018-09-30T19:39:33.494Z,98887.69
2018-09-30T19:42:37.527Z,98885.31
2018-09-30T19:45:42.056Z,98888.50
2018-09-30T19:48:46.797Z,98889.98
2018-09-30T19:51:50.699Z,98890.52
2018-09-30T19:54:55.172Z,98886.42
2018-09-30T19:58:01.174Z,98893.11
2018-09-30T20:01:05.689Z,98888.89
2018-09-30T20:04:10.639Z,98886.79
2018-09-30T20:07:16.752Z,98891.02
2018-09-30T20:10:22.527Z,98886.46
2018-09-30T20:13:27.684Z,98886.30
2018-09-30T20:16:34.636Z,98890.22
2018-09-30T20:19:44.751Z,98887.28
2018-09-30T20:22:48.806Z,98889.73
2018-09-30T20:25:56.922Z,98893.65
2018-09-30T20:29:01.003Z,98893.65
2018-09-30T20:32:05.789Z,98892.02
2018-09-30T20:35:09.710Z,98891.34
2018-09-30T20:38:17.014Z,98891.68
2018-09-30T20:41:23.868Z,98899.16
2018-09-30T20:44:28.646Z,98896.58
2018-09-30T20:47:35.929Z,98889.69
2018-09-30T20:50:42.372Z,98892.02
2018-09-30T20:53:46.173Z,98891.34
2018-09-30T20:56:50.406Z,98892.95
2018-09-30T20:59:54.509Z,98887.39
2018-09-30T21:02:58.689Z,98884.14
2018-09-30T21:06:30.458Z,98891.36
2018-09-30T21:09:35.878Z,98891.34
2018-09-30T21:12:45.019Z,98888.72
2018-09-30T21:15:49.632Z,98885.75
2018-09-30T21:18:57.927Z,98884.19
2018-09-30T21:22:02.066Z,98883.05
2018-09-30T21:25:08.433Z,98882.05
2018-09-30T21:28:13.764Z,98876.03
2018-09-30T21:32:44.350Z,98877.98
2018-09-30T21:35:49.623Z,98876.69
2018-09-30T21:38:55.638Z,98877.00
2018-09-30T21:42:02.335Z,98879.95
2018-09-30T21:45:07.411Z,98887.12
2018-09-30T21:48:12.425Z,98883.53
2018-09-30T21:51:17.212Z,98884.83
2018-09-30T21:54:21.531Z,98887.41
2018-09-30T21:57:25.813Z,98880.91
2018-09-30T22:00:41.244Z,98882.55
2018-09-30T22:03:45.212Z,98873.42
2018-09-30T22:06:53.618Z,98879.51
2018-09-30T22:09:58.916Z,98872.56
2018-09-30T22:13:03.804Z,98871.00
2018-09-30T22:16:08.791Z,98876.27
2018-09-30T22:19:14.697Z,98867.36
2018-09-30T22:22:18.944Z,98866.08
2018-09-30T22:25:25.601Z,98868.66
2018-09-30T22:28:35.168Z,98858.91
2018-09-30T22:31:39.406Z,98859.08
2018-09-30T22:34:44.074Z,98857.27
2018-09-30T22:37:49.434Z,98856.12
2018-09-30T22:40:58.154Z,98854.23
2018-09-30T22:44:02.312Z,98858.65
2018-09-30T22:47:06.295Z,98858.31
2018-09-30T22:50:11.323Z,98853.14
2018-09-30T22:53:16.222Z,98855.02
2018-09-30T22:56:20.904Z,98855.13
2018-09-30T22:59:24.774Z,98858.15
2018-09-30T23:02:29.772Z,98858.89
2018-09-30T23:05:34.486Z,98866.02
2018-09-30T23:08:39.664Z,98865.06
2018-09-30T23:11:43.588Z,98861.78
2018-09-30T23:14:48.166Z,98866.71
2018-09-30T23:17:52.067Z,98877.86
2018-09-30T23:20:56.064Z,98876.36
2018-09-30T23:24:00.215Z,98877.42
2018-09-30T23:27:04.855Z,98878.50
2018-09-30T23:31:33.265Z,98879.87
2018-09-30T23:34:37.229Z,98879.01
2018-09-30T23:37:42.085Z,98874.77
2018-09-30T23:40:46.928Z,98873.69
2018-09-30T23:43:51.054Z,98875.98
2018-09-30T23:46:56.689Z,98873.20
2018-09-30T23:50:00.747Z,98868.06
2018-09-30T23:53:05.757Z,98874.83
2018-09-30T23:56:10.348Z,98875.84
2018-09-30T23:59:14.392Z,98870.98
